Tallahassee, FL (32301)

3:01 PM EST on January 20, 2017 (GMT -0500)
Hartsfield Elementary School WeatherSTEM | | Change Station

Elev 203 ft 30.43 °N, 84.26 °W | Updated 2 minutes ago

Mostly Cloudy
Mostly Cloudy
76.3 °F
Feels Like 78 °F
N
1.0
Wind Variable Wind from West

Today
High -- | Low -- °F
--% Chance of Precip.
Yesterday
High -- | Low -- °F
Precip. -- in
Pressure 29.86 in
Visibility 6.0 miles
Clouds Few 1900 ft
Scattered Clouds 2500 ft
Mostly Cloudy 4200 ft
Overcast 20000 ft
Heat Index 78 °F
Dew Point 69 °F
Humidity 79%
Rainfall 0.15 in
Snow Depth Not available.
7:33 AM 6:03 PM
Last Quarter, 42% visible
METAR KTLH 201953Z COR 22006KT 6SM -RA BR FEW019 SCT025 BKN042 OVC200 23/22 A2986 RMK AO2 RAE18B35 SLP110 P0004 T02330217
Pressure 29.86 in
Visibility 6.0 miles
Clouds Few 1900 ft
Scattered Clouds 2500 ft
Mostly Cloudy 4200 ft
Overcast 20000 ft
Heat Index 78 °F
Dew Point 69 °F
Humidity 79%
Rainfall 0.15 in
Snow Depth Not available.
7:33 AM 6:03 PM
Last Quarter, 42% visible
METAR KTLH 201953Z COR 22006KT 6SM -RA BR FEW019 SCT025 BKN042 OVC200 23/22 A2986 RMK AO2 RAE18B35 SLP110 P0004 T02330217

Get Your Daily Forecast Email!

Thanks for signing up!

Be on the lookout for a verification email in your inbox.

You'll start receiving the daily forecast at 8 AM.

×

10-Day Weather Forecast

Almanac

Astronomy

Jan. 20, 2017 Rise Set
Actual Time
Civil Twilight
Nautical Twilight
Astronomical Twilight
Moon
Length of Visible Light
Length of Day
Tomorrow will be .
, % of the Moon is Illuminated

Today's Extremes

State Highs State Lows

Community

WunderPhotos

Upload Photos

1,962,540 photos uploaded!

WunderBlog® & News

Nearby

Air Quality

  Air Quality AQ Index Pollutant
Not available.

Snow Depth

Station Depth Elevation

Earthquake Activity

City Distance Mag. Time & Date
Minimum magnitude displayed is 2.5.

Coastal Water Temperatures

Place Temperature

Stations

Nearby Weather Stations

Station Location Temp. Windchill Dew Point Humidity Wind Precip. Elev Updated Type
                   

Watches & Warnings

There are currently no watches in effect.